Time;durP1;ratioP1;P1;durP2;ratioP2;P2;SDS_P1;SDS_P2;PMS_P1;PMS_P2;Temp;Humidity;BMP_temperature;BMP_pressure;BME280_temperature;BME280_humidity;BME280_pressure;Samples;Min_cycle;Max_cycle;Signal;HPM_P1;HPM_P2
2022/01/19 00:01:57;;;;;;;10.07;5.53;;;;;;;0.92;52.90;95789.22;5049452;28;20278;-78
2022/01/19 00:04:22;;;;;;;9.45;4.53;;;;;;;1.43;51.86;95798.56;5049141;28;20243;-79
2022/01/19 00:06:48;;;;;;;4.50;4.20;;;;;;;1.88;50.40;95795.38;5066471;28;20207;-78
2022/01/19 00:09:13;;;;;;;6.57;5.17;;;;;;;1.58;51.41;95801.00;5068279;28;20179;-79
2022/01/19 00:11:39;;;;;;;5.30;4.60;;;;;;;0.96;52.45;95800.97;5052898;28;20190;-79
2022/01/19 00:14:04;;;;;;;4.13;3.73;;;;;;;1.08;52.35;95803.63;5053191;28;20411;-79
2022/01/19 00:16:30;;;;;;;7.20;4.20;;;;;;;1.07;52.60;95812.28;5070342;28;20229;-79
2022/01/19 00:18:55;;;;;;;8.00;4.30;;;;;;;1.54;51.55;95805.53;5069645;28;20264;-78
2022/01/19 00:21:20;;;;;;;6.10;4.50;;;;;;;1.18;51.76;95820.09;5069549;28;20202;-79
2022/01/19 00:23:46;;;;;;;4.77;3.03;;;;;;;0.79;52.96;95809.03;5051472;28;20213;-79
2022/01/19 00:26:11;;;;;;;7.83;4.57;;;;;;;1.10;52.41;95825.78;5069901;28;20219;-79
2022/01/19 00:28:37;;;;;;;4.30;4.00;;;;;;;1.31;51.42;95827.78;5051332;28;20280;-77
2022/01/19 00:31:02;;;;;;;8.93;4.77;;;;;;;0.89;52.02;95830.69;5051377;28;20194;-78
2022/01/19 00:33:28;;;;;;;3.83;3.40;;;;;;;0.73;52.83;95836.03;5069471;28;20175;-78
2022/01/19 00:35:54;;;;;;;5.60;3.80;;;;;;;1.31;51.59;95831.19;5069345;28;20209;-79
2022/01/19 00:38:20;;;;;;;8.37;4.73;;;;;;;0.96;52.63;95826.72;5068870;28;20190;-78
2022/01/19 00:40:46;;;;;;;7.10;4.60;;;;;;;1.30;52.22;95829.53;5069486;28;20217;-78
2022/01/19 00:43:13;;;;;;;7.60;3.92;;;;;;;1.23;51.85;95833.47;5069042;28;20437;-78
2022/01/19 00:45:39;;;;;;;7.78;5.20;;;;;;;1.47;51.44;95846.41;5068782;28;20668;-77
2022/01/19 00:48:04;;;;;;;7.90;5.57;;;;;;;1.62;51.70;95844.50;5068716;28;20190;-78
2022/01/19 00:50:30;;;;;;;10.20;4.77;;;;;;;0.84;53.07;95837.88;5069375;28;20435;-78
2022/01/19 00:52:57;;;;;;;6.87;3.70;;;;;;;1.24;52.51;95850.59;5068848;28;20182;-78
2022/01/19 00:55:24;;;;;;;6.80;4.63;;;;;;;1.51;51.97;95853.00;5070181;28;20485;-78
2022/01/19 00:57:50;;;;;;;4.55;4.15;;;;;;;1.66;51.40;95865.75;5068656;28;20175;-78
2022/01/19 01:00:19;;;;;;;6.87;5.07;;;;;;;1.54;51.45;95863.09;5070107;28;20683;-78
2022/01/19 01:02:45;;;;;;;5.45;4.07;;;;;;;1.27;52.16;95860.72;5058129;28;20187;-78
2022/01/19 01:05:11;;;;;;;5.00;4.00;;;;;;;1.14;52.67;95870.22;5076769;28;20190;-79
2022/01/19 01:07:38;;;;;;;8.50;4.77;;;;;;;1.46;52.10;95864.56;5068630;28;20449;-78
2022/01/19 01:10:07;;;;;;;8.15;4.95;;;;;;;0.86;53.76;95863.56;5050662;28;20293;-78
2022/01/19 01:12:45;;;;;;;7.95;4.20;;;;;;;1.24;52.29;95873.81;5077845;28;20233;-78
2022/01/19 01:15:29;;;;;;;7.65;4.10;;;;;;;1.12;53.22;95877.22;5077424;28;20173;-78
2022/01/19 01:20:31;;;;;;;5.22;4.80;;;;;;;1.16;52.67;95863.22;5068277;28;20217;-78
2022/01/19 01:22:57;;;;;;;4.95;4.28;;;;;;;1.36;52.84;95864.38;5068350;28;20205;-78
2022/01/19 01:25:23;;;;;;;6.57;5.17;;;;;;;1.32;52.35;95855.22;5068027;28;20186;-78
2022/01/19 01:27:48;;;;;;;7.00;5.57;;;;;;;1.28;52.39;95857.19;5067910;28;20233;-78
2022/01/19 01:30:14;;;;;;;7.80;4.40;;;;;;;1.46;52.77;95856.81;5068276;28;20186;-80
2022/01/19 01:32:39;;;;;;;6.17;4.60;;;;;;;1.25;52.51;95836.78;5050040;28;20193;-78
2022/01/19 01:35:06;;;;;;;8.93;5.40;;;;;;;1.29;52.67;95839.94;5050050;28;20193;-78
2022/01/19 01:37:31;;;;;;;8.75;4.15;;;;;;;1.00;53.29;95842.81;5049632;28;20183;-78
2022/01/19 01:39:57;;;;;;;6.83;4.53;;;;;;;1.16;52.99;95837.44;5067603;28;20304;-79
2022/01/19 01:42:24;;;;;;;5.60;4.20;;;;;;;1.13;53.03;95838.44;5067962;28;20178;-78
2022/01/19 01:44:52;;;;;;;5.60;5.20;;;;;;;1.08;53.55;95837.13;5068115;28;20183;-78
2022/01/19 01:47:19;;;;;;;6.47;4.93;;;;;;;0.98;53.13;95824.88;5067772;28;20331;-78
2022/01/19 01:54:55;;;;;;;7.32;4.38;;;;;;;0.40;54.71;95826.28;5067571;28;20451;-77
2022/01/19 01:57:21;;;;;;;8.30;4.30;;;;;;;0.24;55.41;95820.47;5049761;28;20175;-78
2022/01/19 02:00:06;;;;;;;3.20;2.50;;;;;;;0.31;54.93;95819.16;5068196;28;20632;-78
2022/01/19 02:02:32;;;;;;;4.72;4.22;;;;;;;0.72;54.59;95818.94;5067832;28;20179;-78
2022/01/19 02:04:57;;;;;;;6.43;3.93;;;;;;;0.46;54.18;95819.88;5049936;28;20187;-77
2022/01/19 02:09:53;;;;;;;5.95;4.72;;;;;;;0.94;53.16;95797.66;5067669;28;20214;-77
2022/01/19 02:23:22;;;;;;;5.05;4.60;;;;;;;0.93;52.97;95785.72;5067348;28;20205;-78
2022/01/19 02:25:52;;;;;;;6.22;3.90;;;;;;;0.60;54.21;95785.47;5049313;28;20245;-77
2022/01/19 02:36:51;;;;;;;8.95;4.68;;;;;;;1.05;52.20;95793.53;5066839;28;20201;-79
2022/01/19 02:42:06;;;;;;;6.75;4.40;;;;;;;0.54;53.18;95774.66;5067279;28;20193;-79
2022/01/19 02:46:39;;;;;;;5.00;3.47;;;;;;;0.39;53.85;95776.50;5067495;28;20200;-79
2022/01/19 02:49:53;;;;;;;6.63;4.00;;;;;;;0.89;52.50;95789.44;5066702;28;20197;-79
2022/01/19 02:52:21;;;;;;;8.57;4.45;;;;;;;0.38;54.09;95786.94;5066776;28;20185;-79
2022/01/19 02:54:46;;;;;;;9.75;4.95;;;;;;;0.39;53.97;95791.13;5066267;28;20178;-79
2022/01/19 02:57:14;;;;;;;2.77;2.57;;;;;;;0.52;53.52;95784.22;5049028;28;20644;-79
2022/01/19 03:10:18;;;;;;;3.90;3.55;;;;;;;1.03;51.72;95800.56;5066721;28;20323;-78
2022/01/19 03:12:44;;;;;;;4.77;4.40;;;;;;;0.39;53.53;95791.94;5065368;28;20222;-79
2022/01/19 03:15:11;;;;;;;6.80;4.13;;;;;;;0.67;52.78;95784.13;5066913;28;20308;-79
2022/01/19 03:17:37;;;;;;;22.98;4.10;;;;;;;0.71;52.83;95780.41;5048120;28;20179;-78
2022/01/19 03:20:08;;;;;;;7.97;3.92;;;;;;;0.60;53.23;95782.91;5066979;28;20194;-78
2022/01/19 03:22:40;;;;;;;3.92;3.50;;;;;;;0.81;51.83;95781.41;5066558;28;20174;-78
2022/01/19 03:25:12;;;;;;;6.63;4.03;;;;;;;0.67;52.57;95787.53;5066882;28;20201;-78
2022/01/19 03:27:39;;;;;;;4.75;3.00;;;;;;;0.50;53.35;95786.09;5066532;28;20249;-78
2022/01/19 03:30:06;;;;;;;4.90;4.15;;;;;;;0.78;52.13;95791.94;5066803;28;20190;-78
2022/01/19 03:32:31;;;;;;;5.53;4.00;;;;;;;1.00;51.68;95786.09;5048408;28;20187;-78
2022/01/19 03:34:57;;;;;;;6.37;3.73;;;;;;;0.92;52.12;95790.97;5066175;28;20194;-78
2022/01/19 03:37:22;;;;;;;5.20;3.50;;;;;;;0.92;51.70;95799.53;5066778;28;20183;-78
2022/01/19 03:39:48;;;;;;;10.73;4.50;;;;;;;0.72;52.54;95798.34;5066533;28;20178;-78
2022/01/19 03:42:13;;;;;;;5.37;4.87;;;;;;;0.92;52.54;95809.84;5049653;28;20193;-78
2022/01/19 03:44:39;;;;;;;4.83;4.23;;;;;;;0.68;51.82;95807.19;5070807;28;20193;-78
2022/01/19 03:47:06;;;;;;;5.85;4.63;;;;;;;0.95;52.21;95799.31;5070195;28;20205;-79
2022/01/19 03:49:33;;;;;;;5.30;4.38;;;;;;;1.29;50.97;95789.22;5069951;28;20225;-80
2022/01/19 03:52:02;;;;;;;9.48;5.80;;;;;;;0.83;52.28;95795.00;5069713;28;20191;-78
2022/01/19 03:54:30;;;;;;;5.25;4.80;;;;;;;0.88;52.11;95795.53;5069844;28;20297;-78
2022/01/19 03:56:56;;;;;;;6.50;4.18;;;;;;;0.77;52.58;95792.84;5070306;28;20194;-78
2022/01/19 03:59:21;;;;;;;8.63;4.80;;;;;;;0.91;52.04;95802.19;5069749;28;20642;-78
2022/01/19 04:01:47;;;;;;;3.73;3.43;;;;;;;0.98;51.22;95800.84;5068298;28;20191;-76
2022/01/19 04:07:08;;;;;;;5.73;3.93;;;;;;;0.72;51.74;95794.91;5070343;28;20198;-78
2022/01/19 04:09:26;;;;;;;5.85;4.70;;;;;;;0.97;51.05;95802.63;5068997;28;20489;-77
2022/01/19 04:11:52;;;;;;;5.65;4.05;;;;;;;0.39;53.01;95796.28;5071551;28;20209;-77
2022/01/19 04:14:21;;;;;;;9.13;4.30;;;;;;;0.89;51.42;95799.75;5052754;28;20213;-77
2022/01/19 04:16:48;;;;;;;10.27;4.10;;;;;;;1.07;50.48;95804.56;5069784;28;20193;-77
2022/01/19 04:19:26;;;;;;;6.13;4.35;;;;;;;0.84;51.29;95812.13;5069739;28;20251;-78
2022/01/19 04:21:54;;;;;;;7.25;4.63;;;;;;;0.88;51.51;95816.13;5069648;28;20158;-77
2022/01/19 04:24:20;;;;;;;7.28;5.38;;;;;;;0.98;51.29;95819.72;5069137;28;20251;-78
2022/01/19 04:26:50;;;;;;;7.75;5.18;;;;;;;1.20;50.97;95822.56;5051346;28;20211;-78
2022/01/19 04:29:15;;;;;;;9.35;4.45;;;;;;;1.27;50.20;95824.63;5069626;28;20182;-78
2022/01/19 04:31:41;;;;;;;3.00;1.80;;;;;;;0.97;50.85;95828.38;5069645;28;20611;-76
2022/01/19 04:34:07;;;;;;;6.63;4.17;;;;;;;1.02;50.44;95828.06;5052062;28;20625;-78
2022/01/19 05:06:04;;;;;;;9.77;4.95;;;;;;;1.05;50.84;95842.50;5006875;28;20185;-77
2022/01/19 05:13:51;;;;;;;6.22;5.10;;;;;;;1.05;50.38;95850.25;5067938;28;20218;-78
2022/01/19 05:16:18;;;;;;;7.70;4.97;;;;;;;0.79;50.97;95847.69;5050445;28;20183;-77
2022/01/19 05:18:44;;;;;;;6.03;5.20;;;;;;;0.80;51.22;95858.78;5050280;28;20193;-78
2022/01/19 05:21:09;;;;;;;8.10;6.43;;;;;;;1.05;51.25;95857.97;5050304;28;20186;-77
2022/01/19 05:23:35;;;;;;;10.30;5.47;;;;;;;1.03;50.79;95862.41;5050266;28;20213;-79
2022/01/19 05:26:00;;;;;;;6.37;5.77;;;;;;;0.94;50.91;95869.81;5068116;28;20179;-77
2022/01/19 05:28:26;;;;;;;7.77;4.57;;;;;;;0.80;51.42;95874.25;5068170;28;20186;-79
2022/01/19 05:30:51;;;;;;;6.80;5.23;;;;;;;1.05;50.72;95870.84;5068406;28;20667;-78
2022/01/19 05:33:17;;;;;;;6.33;4.80;;;;;;;0.54;52.14;95871.69;5049743;28;20185;-78
2022/01/19 05:35:42;;;;;;;5.97;5.40;;;;;;;0.69;52.58;95882.72;5050259;28;20618;-79
2022/01/19 05:38:08;;;;;;;4.87;4.03;;;;;;;0.39;52.71;95879.50;5067785;28;20185;-79
2022/01/19 05:40:33;;;;;;;8.40;5.80;;;;;;;0.94;51.29;95890.44;5067625;28;20190;-78
2022/01/19 05:42:59;;;;;;;8.23;5.37;;;;;;;0.72;52.64;95885.06;5049864;28;20187;-79
2022/01/19 05:45:24;;;;;;;14.40;4.17;;;;;;;0.87;52.00;95891.78;5067815;28;20179;-78
2022/01/19 05:47:50;;;;;;;7.57;4.97;;;;;;;0.77;52.35;95899.31;5067441;28;20218;-76
2022/01/19 05:50:15;;;;;;;3.90;3.57;;;;;;;0.40;54.02;95895.78;5053546;28;20554;-78
2022/01/19 05:52:41;;;;;;;6.20;4.97;;;;;;;0.60;54.07;95906.50;5068475;28;20206;-78
2022/01/19 05:55:07;;;;;;;6.37;4.93;;;;;;;0.91;53.55;95911.28;5050735;28;20162;-78
2022/01/19 05:57:33;;;;;;;13.57;5.50;;;;;;;0.84;53.05;95914.38;5065418;28;20183;-77
2022/01/19 06:00:05;;;;;;;10.10;6.37;;;;;;;0.53;54.58;95917.22;5067681;28;20653;-78
2022/01/19 06:02:31;;;;;;;8.55;5.30;;;;;;;0.26;55.29;95913.88;5068578;28;20417;-78
2022/01/19 06:04:57;;;;;;;6.47;5.55;;;;;;;0.67;54.13;95915.50;5068315;28;20183;-78
2022/01/19 06:07:28;;;;;;;6.97;6.20;;;;;;;0.68;54.13;95920.50;5049026;28;20332;-78
2022/01/19 06:10:03;;;;;;;8.70;6.10;;;;;;;0.71;54.52;95909.19;5067294;28;20436;-78
2022/01/19 06:12:29;;;;;;;8.18;5.70;;;;;;;0.76;53.97;95904.56;5067218;28;20222;-79
2022/01/19 06:14:55;;;;;;;11.80;6.80;;;;;;;0.69;54.71;95914.44;5050178;28;20206;-81
2022/01/19 06:17:26;;;;;;;7.70;6.63;;;;;;;0.80;54.56;95912.91;5050515;28;20179;-78
2022/01/19 06:19:52;;;;;;;8.02;6.75;;;;;;;0.93;53.74;95912.00;5049648;28;20248;-78
2022/01/19 06:22:18;;;;;;;7.83;6.10;;;;;;;0.83;54.50;95916.09;5065916;28;20190;-80
2022/01/19 06:24:44;;;;;;;9.15;5.80;;;;;;;0.83;54.31;95917.84;5050158;28;20270;-80
2022/01/19 06:27:10;;;;;;;8.53;6.73;;;;;;;0.97;54.41;95921.16;5067635;28;20207;-79
2022/01/19 06:29:36;;;;;;;11.15;7.15;;;;;;;1.12;53.13;95923.59;5050231;28;20241;-79
2022/01/19 06:32:02;;;;;;;8.47;6.67;;;;;;;1.29;53.22;95923.31;5049993;28;20183;-78
2022/01/19 06:34:27;;;;;;;16.83;6.73;;;;;;;0.94;54.46;95921.34;5066020;28;20199;-79
2022/01/19 06:36:53;;;;;;;9.60;6.07;;;;;;;0.87;54.20;95927.84;5049505;28;20433;-79
2022/01/19 06:39:20;;;;;;;13.53;7.30;;;;;;;0.97;54.52;95925.50;5049822;28;20246;-79
2022/01/19 06:41:46;;;;;;;13.35;8.15;;;;;;;1.43;53.43;95935.25;5049781;28;20284;-79
2022/01/19 06:44:13;;;;;;;10.30;6.07;;;;;;;1.43;53.33;95934.44;5048983;28;20246;-78
2022/01/19 06:46:40;;;;;;;14.68;6.95;;;;;;;1.33;53.98;95935.06;5066776;28;20219;-78
2022/01/19 06:49:05;;;;;;;11.88;7.82;;;;;;;1.43;53.91;95947.31;5066961;28;20197;-78
2022/01/19 06:51:31;;;;;;;13.47;7.50;;;;;;;1.36;53.85;95945.16;5067744;28;20207;-79
2022/01/19 06:53:56;;;;;;;13.00;6.97;;;;;;;1.64;53.27;95940.66;5049038;28;20183;-79
2022/01/19 06:56:22;;;;;;;15.83;8.07;;;;;;;1.14;54.42;95942.41;5067191;28;20178;-79
2022/01/19 06:58:48;;;;;;;14.80;6.93;;;;;;;1.67;53.54;95937.88;5066575;28;20198;-78
2022/01/19 07:01:14;;;;;;;13.32;7.15;;;;;;;1.49;53.73;95937.38;5048164;28;20182;-77
2022/01/19 07:03:39;;;;;;;21.80;9.23;;;;;;;1.68;53.35;95930.97;5066225;28;20194;-78
2022/01/19 07:06:04;;;;;;;13.07;7.10;;;;;;;1.43;54.34;95937.00;5048058;28;20192;-77
2022/01/19 07:08:30;;;;;;;44.67;11.57;;;;;;;1.66;53.14;95928.47;5070072;28;20673;-79
2022/01/19 07:10:55;;;;;;;13.07;7.53;;;;;;;1.80;52.69;95929.25;5071066;28;20202;-79
2022/01/19 07:13:21;;;;;;;12.20;7.10;;;;;;;1.43;53.82;95926.69;5049447;28;20234;-79
2022/01/19 07:15:47;;;;;;;15.13;7.83;;;;;;;1.79;53.66;95912.97;5066329;28;20186;-79
2022/01/19 07:18:13;;;;;;;18.10;7.53;;;;;;;1.36;53.80;95901.31;5065692;28;20197;-79
2022/01/19 07:20:38;;;;;;;19.40;8.27;;;;;;;1.15;54.68;95897.63;5052133;28;20189;-78
2022/01/19 07:23:04;;;;;;;13.43;6.60;;;;;;;1.52;53.28;95906.25;5061279;28;20191;-79
2022/01/19 07:25:31;;;;;;;16.50;7.37;;;;;;;1.51;53.73;95896.84;5066557;28;20190;-79
2022/01/19 07:27:57;;;;;;;6.65;5.38;;;;;;;1.47;53.56;95902.34;5069545;28;20477;-79
2022/01/19 07:30:24;;;;;;;12.23;6.80;;;;;;;1.68;53.11;95897.41;5066757;28;20179;-80
2022/01/19 07:32:51;;;;;;;9.55;7.45;;;;;;;1.42;54.36;95897.47;5048736;28;20260;-78
2022/01/19 07:35:17;;;;;;;13.80;7.75;;;;;;;1.76;53.35;95902.84;5066910;28;20185;-79
2022/01/19 07:37:43;;;;;;;9.73;7.53;;;;;;;1.64;53.73;95899.38;5049337;28;20324;-80
2022/01/19 07:40:10;;;;;;;25.55;7.30;;;;;;;2.19;52.71;95896.38;5049388;28;20209;-79
2022/01/19 07:42:35;;;;;;;17.25;7.70;;;;;;;2.14;52.71;95892.38;5067176;28;20206;-81
2022/01/19 07:45:01;;;;;;;19.23;8.00;;;;;;;2.08;52.79;95899.72;5066433;28;20186;-79
2022/01/19 07:47:30;;;;;;;13.20;6.30;;;;;;;2.15;52.08;95903.53;5066665;28;20234;-80
2022/01/19 07:49:57;;;;;;;7.90;5.63;;;;;;;2.36;51.59;95905.50;5066672;28;20198;-79
2022/01/19 07:52:23;;;;;;;16.15;5.88;;;;;;;1.85;52.32;95899.63;5066470;28;20193;-81
2022/01/19 07:54:48;;;;;;;13.90;6.80;;;;;;;2.03;52.54;95894.06;5066944;28;20183;-80
2022/01/19 07:57:14;;;;;;;36.17;8.90;;;;;;;2.12;52.58;95898.56;5048042;28;20229;-79
2022/01/19 07:59:39;;;;;;;14.17;7.20;;;;;;;2.44;51.65;95914.31;5048870;28;20179;-82
2022/01/19 08:02:05;;;;;;;8.50;4.40;;;;;;;2.23;52.00;95910.72;5031973;28;20359;-79
2022/01/19 08:04:31;;;;;;;9.43;5.90;;;;;;;2.81;50.68;95909.00;5048109;28;20665;-79
2022/01/19 08:06:56;;;;;;;11.93;6.73;;;;;;;2.34;51.18;95892.69;5066249;28;20190;-79
2022/01/19 08:09:22;;;;;;;24.83;6.97;;;;;;;2.60;51.19;95908.00;5048228;28;20183;-80
2022/01/19 08:11:48;;;;;;;12.20;7.20;;;;;;;3.32;49.06;95895.63;5048480;28;20214;-80
2022/01/19 08:14:14;;;;;;;13.83;6.63;;;;;;;3.21;48.93;95895.66;5066482;28;20421;-80
2022/01/19 08:16:39;;;;;;;9.80;7.10;;;;;;;3.07;49.69;95904.47;5048458;28;20190;-79
2022/01/19 08:19:05;;;;;;;17.47;7.67;;;;;;;3.22;49.33;95899.84;5048772;28;20189;-79
2022/01/19 08:21:30;;;;;;;9.60;4.50;;;;;;;3.38;48.23;95904.69;5048514;28;20191;-80
2022/01/19 08:23:56;;;;;;;9.30;5.13;;;;;;;3.24;48.58;95897.16;5065952;28;20186;-79
2022/01/19 08:26:22;;;;;;;9.27;5.10;;;;;;;3.36;48.37;95905.72;5047720;28;20178;-80
2022/01/19 08:28:47;;;;;;;10.00;5.57;;;;;;;3.01;48.83;95901.50;5048363;28;20195;-79
2022/01/19 08:31:13;;;;;;;7.80;4.30;;;;;;;3.48;48.14;95905.63;5069590;28;20432;-79
2022/01/19 08:33:38;;;;;;;12.50;6.70;;;;;;;3.46;47.65;95904.91;5051568;28;20191;-78
2022/01/19 08:36:04;;;;;;;8.57;7.57;;;;;;;3.60;47.14;95903.00;5069912;28;20171;-78
2022/01/19 08:38:30;;;;;;;8.50;6.57;;;;;;;2.75;49.10;95906.84;5070090;28;20183;-77
2022/01/19 08:40:56;;;;;;;11.63;6.33;;;;;;;3.52;46.70;95893.25;5051276;28;20432;-78
2022/01/19 08:43:21;;;;;;;6.80;5.67;;;;;;;3.26;48.23;95885.78;5051484;28;20187;-79
2022/01/19 08:45:47;;;;;;;9.40;7.10;;;;;;;3.85;46.32;95883.78;5051333;28;20196;-79
2022/01/19 08:48:18;;;;;;;8.87;6.60;;;;;;;4.14;45.79;95878.06;5052490;28;20214;-81
2022/01/19 08:50:43;;;;;;;10.13;6.05;;;;;;;3.88;46.07;95886.13;5049098;28;20217;-81
2022/01/19 08:53:09;;;;;;;6.10;3.90;;;;;;;3.36;47.17;95887.63;5054051;28;20273;-85
2022/01/19 08:55:38;;;;;;;17.90;6.83;;;;;;;3.74;45.90;95884.66;5077797;28;20187;-84
2022/01/19 08:58:16;;;;;;;10.77;7.27;;;;;;;3.95;45.04;95881.31;5050056;28;20425;-83
2022/01/19 09:00:44;;;;;;;13.20;8.13;;;;;;;3.97;45.68;95875.03;5062461;28;20424;-80
2022/01/19 09:03:11;;;;;;;14.07;5.57;;;;;;;3.95;45.65;95878.72;5051508;28;20433;-81
2022/01/19 09:05:39;;;;;;;13.27;6.53;;;;;;;4.28;44.48;95878.56;5068932;28;20413;-82
2022/01/19 09:08:05;;;;;;;15.53;6.87;;;;;;;3.91;44.84;95880.72;5051025;28;20211;-80
2022/01/19 09:10:30;;;;;;;5.60;4.82;;;;;;;3.97;44.85;95871.66;5084556;28;20420;-83
2022/01/19 09:12:56;;;;;;;8.80;5.77;;;;;;;4.09;44.62;95873.22;5071211;28;20240;-79
2022/01/19 09:15:23;;;;;;;8.13;5.40;;;;;;;4.27;43.86;95861.38;5071271;28;20190;-78
2022/01/19 09:17:49;;;;;;;7.33;4.67;;;;;;;4.32;43.21;95857.59;5089541;28;20636;-81
2022/01/19 09:20:15;;;;;;;13.63;5.27;;;;;;;3.94;44.42;95864.09;5079655;28;20417;-80
2022/01/19 09:22:41;;;;;;;4.20;3.40;;;;;;;4.25;43.12;95863.28;5067893;28;20413;-81
2022/01/19 09:25:09;;;;;;;9.90;4.90;;;;;;;4.08;44.25;95851.69;5056860;28;20401;-82
2022/01/19 09:27:34;;;;;;;6.70;4.97;;;;;;;4.10;43.24;95854.97;5069387;28;20454;-81
2022/01/19 09:30:00;;;;;;;8.17;3.77;;;;;;;3.64;45.04;95843.16;5053422;28;20413;-79
2022/01/19 09:32:27;;;;;;;8.97;4.47;;;;;;;3.95;44.04;95851.03;5069349;28;20225;-79
2022/01/19 09:35:05;;;;;;;8.63;4.73;;;;;;;4.27;43.74;95839.84;5069870;28;20413;-81
2022/01/19 09:37:40;;;;;;;8.00;5.87;;;;;;;4.68;42.88;95828.63;5088910;28;20404;-82
2022/01/19 09:40:07;;;;;;;9.63;5.00;;;;;;;4.44;42.72;95821.13;5070324;28;20422;-83
2022/01/19 09:42:34;;;;;;;5.93;4.20;;;;;;;4.69;42.17;95819.09;5071187;28;20412;-80
2022/01/19 09:45:00;;;;;;;9.27;4.13;;;;;;;4.81;42.31;95815.44;5088912;28;20411;-81
2022/01/19 09:47:25;;;;;;;17.87;5.87;;;;;;;5.36;41.42;95817.69;5069496;28;20520;-81
2022/01/19 09:49:51;;;;;;;7.53;4.70;;;;;;;4.32;42.96;95814.38;5050533;28;20194;-84
2022/01/19 09:52:16;;;;;;;10.53;4.40;;;;;;;3.81;44.87;95813.28;5086609;28;20280;-82
2022/01/19 09:54:42;;;;;;;8.73;5.40;;;;;;;4.63;43.05;95811.81;5059804;28;20217;-80
2022/01/19 09:57:07;;;;;;;6.83;4.93;;;;;;;4.81;42.44;95817.25;5071442;28;20249;-78
2022/01/19 09:59:33;;;;;;;13.50;6.33;;;;;;;4.70;42.52;95812.94;5088039;28;20211;-79
2022/01/19 10:02:02;;;;;;;6.40;4.50;;;;;;;5.19;42.02;95819.16;5087842;28;20189;-79
2022/01/19 10:04:30;;;;;;;8.23;5.20;;;;;;;5.72;41.00;95825.03;5068713;28;20329;-79
2022/01/19 10:07:23;;;;;;;5.63;5.00;;;;;;;5.50;40.69;95808.72;5068047;28;20468;-80
2022/01/19 10:17:03;;;;;;;9.83;4.60;;;;;;;5.56;40.94;95797.81;5017511;28;21151;-80
2022/01/19 10:19:15;;;;;;;8.70;6.43;;;;;;;5.43;40.85;95792.88;5060088;28;20432;-82
2022/01/19 10:22:11;;;;;;;6.27;4.03;;;;;;;5.46;40.16;95786.56;5085918;28;20462;-83
2022/01/19 10:24:41;;;;;;;7.90;5.33;;;;;;;5.45;40.33;95787.53;5086903;28;20424;-78
2022/01/19 10:27:29;;;;;;;8.77;6.00;;;;;;;5.57;40.32;95783.03;5054275;28;20506;-80
2022/01/19 10:30:13;;;;;;;7.77;5.30;;;;;;;5.52;40.05;95782.63;5087505;28;20408;-80
2022/01/19 10:32:43;;;;;;;12.30;4.77;;;;;;;5.48;40.99;95780.31;5067143;28;20543;-79
2022/01/19 10:35:17;;;;;;;6.83;4.60;;;;;;;5.28;41.30;95774.25;5065719;28;20425;-80
2022/01/19 10:37:44;;;;;;;3.20;2.93;;;;;;;4.69;42.13;95777.63;5068489;28;20500;-86
2022/01/19 10:40:36;;;;;;;6.60;5.53;;;;;;;5.59;40.61;95781.94;5054050;28;20435;-81
2022/01/19 10:43:24;;;;;;;10.47;7.30;;;;;;;6.24;39.25;95779.66;5068297;28;20183;-81
2022/01/19 10:45:49;;;;;;;7.00;5.37;;;;;;;6.48;38.68;95773.16;5039808;28;20411;-80
2022/01/19 10:48:36;;;;;;;10.30;5.37;;;;;;;6.79;38.49;95768.56;5082074;28;20479;-81
2022/01/19 10:51:14;;;;;;;3.70;3.40;;;;;;;5.45;39.85;95748.59;5066155;28;20194;-80
2022/01/19 10:53:43;;;;;;;4.83;3.27;;;;;;;5.70;39.95;95746.44;5065947;28;20433;-78
2022/01/19 10:56:29;;;;;;;6.70;5.00;;;;;;;5.08;40.67;95731.03;5065757;28;20425;-80
2022/01/19 10:59:00;;;;;;;6.50;4.00;;;;;;;5.54;40.06;95727.03;5048505;28;20481;-79
2022/01/19 11:01:43;;;;;;;5.30;4.80;;;;;;;5.26;40.67;95728.63;5066652;28;20480;-79
2022/01/19 11:04:19;;;;;;;5.30;3.67;;;;;;;4.68;42.24;95711.13;5048218;28;20429;-82
2022/01/19 11:06:47;;;;;;;5.27;4.33;;;;;;;5.31;41.54;95715.25;5063680;28;20467;-79
2022/01/19 11:09:14;;;;;;;14.83;6.50;;;;;;;6.12;40.13;95709.78;5046639;28;21026;-79
2022/01/19 11:11:44;;;;;;;9.50;6.43;;;;;;;6.70;40.39;95698.38;5045914;28;20425;-78
2022/01/19 11:14:16;;;;;;;6.90;5.30;;;;;;;6.74;40.60;95697.94;5047798;28;20457;-81
2022/01/19 11:16:43;;;;;;;11.40;7.33;;;;;;;5.86;42.13;95694.72;5048890;28;20617;-80
2022/01/19 11:19:10;;;;;;;21.13;7.00;;;;;;;5.64;42.87;95695.88;5065416;28;20429;-80
2022/01/19 11:21:46;;;;;;;17.70;6.13;;;;;;;5.35;42.12;95682.88;5041930;28;20441;-80
2022/01/19 11:24:24;;;;;;;8.43;5.17;;;;;;;5.09;43.66;95670.44;5064420;28;20491;-79
2022/01/19 11:26:53;;;;;;;9.93;6.37;;;;;;;5.72;42.83;95683.00;5048492;28;20983;-78
2022/01/19 11:29:23;;;;;;;12.33;7.07;;;;;;;6.68;40.38;95675.09;5048604;28;20425;-80
2022/01/19 11:31:51;;;;;;;6.30;5.70;;;;;;;7.22;40.06;95678.59;5047548;28;20459;-80
2022/01/19 11:34:38;;;;;;;12.83;4.47;;;;;;;6.60;40.22;95685.41;5065188;28;20436;-80
2022/01/19 11:37:03;;;;;;;8.53;6.20;;;;;;;6.29;40.29;95679.63;5048130;28;20418;-75
2022/01/19 11:39:30;;;;;;;11.13;7.13;;;;;;;7.02;40.46;95684.94;5065221;28;20504;-81
2022/01/19 11:42:04;;;;;;;13.80;6.83;;;;;;;6.42;40.29;95678.34;5062655;28;20251;-78
2022/01/19 11:44:33;;;;;;;14.33;5.97;;;;;;;6.95;38.55;95663.88;5061115;28;20469;-81
2022/01/19 11:47:13;;;;;;;12.10;7.80;;;;;;;7.00;39.75;95663.41;5048675;28;20453;-83
2022/01/19 11:50:00;;;;;;;6.57;5.87;;;;;;;5.98;40.41;95667.69;5050112;28;20436;-81
2022/01/19 11:52:47;;;;;;;8.60;5.00;;;;;;;6.56;39.55;95651.06;5065269;28;20432;-87
2022/01/19 11:55:21;;;;;;;9.40;6.70;;;;;;;7.21;38.16;95650.16;5040293;28;20896;-87
2022/01/19 11:57:49;;;;;;;10.40;6.20;;;;;;;8.14;35.95;95649.72;5067461;28;20424;-81
2022/01/19 12:00:22;;;;;;;20.80;7.27;;;;;;;7.80;36.56;95642.66;5067421;28;20424;-78
2022/01/19 12:02:50;;;;;;;13.93;7.20;;;;;;;7.38;37.62;95644.13;5056888;28;20429;-80
2022/01/19 12:05:30;;;;;;;13.10;7.67;;;;;;;7.29;38.27;95644.19;5052265;28;20425;-80
2022/01/19 12:08:17;;;;;;;6.10;5.60;;;;;;;6.91;38.96;95643.50;5053822;28;20452;-80
2022/01/19 12:10:46;;;;;;;9.07;6.73;;;;;;;7.67;37.31;95630.00;5051821;28;20483;-78
2022/01/19 12:16:18;;;;;;;10.50;5.73;;;;;;;6.12;40.22;95631.81;5069205;28;20437;-79
2022/01/19 12:18:49;;;;;;;14.00;6.60;;;;;;;6.64;39.81;95626.94;5051809;28;20429;-79
2022/01/19 12:21:37;;;;;;;10.30;6.00;;;;;;;6.68;40.20;95632.66;5052803;28;20878;-79
2022/01/19 12:24:34;;;;;;;6.90;6.30;;;;;;;6.44;40.53;95621.03;5088739;28;20432;-79
2022/01/19 12:27:18;;;;;;;5.90;5.40;;;;;;;6.10;40.47;95623.34;5030119;28;20850;-80
2022/01/19 12:36:52;;;;;;;6.70;6.00;;;;;;;5.36;42.91;95624.84;5013436;28;20419;-80
2022/01/19 12:39:28;;;;;;;11.00;6.67;;;;;;;5.45;43.34;95622.22;5031477;28;20444;-80
2022/01/19 12:41:56;;;;;;;9.00;4.70;;;;;;;5.23;43.64;95615.53;5049388;28;20492;-80
2022/01/19 12:44:48;;;;;;;14.13;7.83;;;;;;;6.03;41.81;95605.75;5048132;28;20422;-80
2022/01/19 12:47:28;;;;;;;15.70;8.80;;;;;;;5.07;43.75;95613.50;5049414;28;20438;-79
2022/01/19 12:50:17;;;;;;;13.80;9.50;;;;;;;6.05;42.80;95601.22;5049492;28;20452;-79
2022/01/19 12:52:43;;;;;;;18.50;7.90;;;;;;;5.40;43.30;95608.84;5043339;28;20434;-77
2022/01/19 12:55:18;;;;;;;11.77;8.73;;;;;;;5.64;42.98;95598.00;5049415;28;20425;-79
2022/01/19 12:57:44;;;;;;;12.13;9.43;;;;;;;5.17;44.55;95592.75;5049400;28;20834;-77
2022/01/19 13:00:17;;;;;;;11.70;8.90;;;;;;;5.33;44.81;95587.00;5030621;28;20422;-77
2022/01/19 13:02:42;;;;;;;21.40;9.50;;;;;;;4.81;45.51;95582.06;5048662;28;20405;-78
2022/01/19 13:05:14;;;;;;;12.03;9.27;;;;;;;4.77;45.91;95578.13;5048547;28;20414;-78
2022/01/19 13:07:43;;;;;;;14.13;8.90;;;;;;;5.39;44.76;95586.44;5054223;28;20213;-85
2022/01/19 13:10:23;;;;;;;12.73;7.43;;;;;;;5.11;44.87;95569.94;5071601;28;20440;-79
2022/01/19 13:15:49;;;;;;;15.77;7.63;;;;;;;4.84;45.88;95561.06;5066966;28;20466;-81
2022/01/19 13:18:27;;;;;;;11.87;8.53;;;;;;;5.08;45.25;95550.28;5087576;28;20404;-81
2022/01/19 13:20:56;;;;;;;15.27;8.57;;;;;;;5.37;44.68;95551.19;5062180;28;20432;-82
2022/01/19 13:23:22;;;;;;;12.07;6.47;;;;;;;4.67;45.89;95546.19;5068805;28;20409;-84
2022/01/19 13:26:07;;;;;;;11.13;6.83;;;;;;;5.06;45.03;95538.41;5069446;28;20452;-80
2022/01/19 13:28:34;;;;;;;10.27;7.57;;;;;;;5.06;45.15;95533.22;5070316;28;20487;-80
2022/01/19 13:31:13;;;;;;;9.87;5.97;;;;;;;5.56;47.45;95533.00;5087966;28;20459;-78